createdAt,value
2022-11-23T00:01:11.517Z,60.38
2022-11-23T00:03:39.530Z,60.15
2022-11-23T00:06:08.959Z,60.13
2022-11-23T00:08:37.297Z,61.13
2022-11-23T00:11:05.847Z,60.76
2022-11-23T00:13:35.146Z,61.46
2022-11-23T00:16:06.069Z,61.37
2022-11-23T00:18:34.028Z,60.99
2022-11-23T00:21:06.298Z,60.53
2022-11-23T00:23:35.580Z,60.67
2022-11-23T00:26:03.418Z,61.17
2022-11-23T00:28:31.523Z,60.54
2022-11-23T00:30:59.566Z,60.32
2022-11-23T00:33:27.420Z,60.38
2022-11-23T00:36:02.208Z,60.46
2022-11-23T00:38:31.782Z,61.21
2022-11-23T00:41:02.161Z,60.69
2022-11-23T00:43:31.452Z,61.04
2022-11-23T00:46:04.920Z,61.34
2022-11-23T00:48:33.246Z,61.14
2022-11-23T00:51:02.455Z,61.17
2022-11-23T00:53:30.363Z,61.40
2022-11-23T00:55:58.695Z,61.70
2022-11-23T00:58:34.624Z,61.34
2022-11-23T01:01:07.240Z,61.76
2022-11-23T01:03:37.163Z,61.95
2022-11-23T01:06:07.568Z,61.11
2022-11-23T01:08:35.488Z,61.33
2022-11-23T01:11:10.722Z,61.97
2022-11-23T01:13:42.162Z,62.19
2022-11-23T01:16:19.510Z,61.92
2022-11-23T01:18:53.615Z,61.44
2022-11-23T01:21:24.407Z,61.89
2022-11-23T01:23:52.548Z,61.17
2022-11-23T01:26:21.265Z,61.15
2022-11-23T01:28:50.874Z,61.90
2022-11-23T01:31:20.923Z,61.87
2022-11-23T01:33:49.414Z,62.10
2022-11-23T01:36:20.915Z,62.33
2022-11-23T01:38:49.429Z,62.25
2022-11-23T01:41:20.354Z,61.67
2022-11-23T01:43:51.521Z,61.45
2022-11-23T01:46:19.663Z,61.70
2022-11-23T01:48:52.091Z,61.66
2022-11-23T01:51:22.704Z,61.54
2022-11-23T01:53:55.390Z,61.07
2022-11-23T01:56:27.880Z,61.12
2022-11-23T01:59:03.747Z,61.46
2022-11-23T02:01:32.220Z,61.20
2022-11-23T02:04:02.140Z,61.18
2022-11-23T02:06:31.180Z,61.37
2022-11-23T02:09:03.300Z,61.11
2022-11-23T02:11:31.307Z,61.84
2022-11-23T02:14:00.529Z,61.36
2022-11-23T02:16:31.862Z,61.00
2022-11-23T02:18:59.891Z,59.50
2022-11-23T02:21:28.125Z,60.02
2022-11-23T02:24:02.732Z,59.42
2022-11-23T02:26:34.379Z,58.97
2022-11-23T02:29:11.176Z,58.24
2022-11-23T02:34:25.803Z,55.62
2022-11-23T02:36:57.352Z,55.70
2022-11-23T02:39:35.884Z,55.84
2022-11-23T02:42:06.826Z,55.80
2022-11-23T02:44:44.788Z,56.13
2022-11-23T02:47:14.619Z,56.78
2022-11-23T02:49:43.477Z,56.63
2022-11-23T02:52:11.356Z,56.68
2022-11-23T02:54:39.194Z,57.37
2022-11-23T02:57:08.957Z,58.21
2022-11-23T02:59:37.165Z,57.88
2022-11-23T03:02:06.278Z,57.28
2022-11-23T03:04:34.399Z,58.12
2022-11-23T03:07:02.463Z,57.62
2022-11-23T03:09:32.748Z,58.22
2022-11-23T03:12:00.848Z,57.62
2022-11-23T03:14:31.329Z,57.05
2022-11-23T03:16:59.604Z,57.04
2022-11-23T03:19:31.188Z,56.87
2022-11-23T03:21:59.320Z,57.87
2022-11-23T03:24:31.751Z,57.08
2022-11-23T03:27:01.279Z,57.80
2022-11-23T03:29:31.492Z,57.90
2022-11-23T03:32:02.807Z,56.70
2022-11-23T03:34:30.823Z,56.69
2022-11-23T03:36:58.714Z,56.24
2022-11-23T03:39:26.975Z,56.09
2022-11-23T03:42:14.127Z,56.52
2022-11-23T03:44:43.443Z,56.61
2022-11-23T03:47:12.136Z,55.98
2022-11-23T03:49:40.072Z,55.78
2022-11-23T03:52:09.992Z,55.20
2022-11-23T03:54:37.915Z,54.58
2022-11-23T03:57:21.758Z,55.21
2022-11-23T03:59:51.422Z,55.46
2022-11-23T04:02:20.007Z,55.33
2022-11-23T04:04:57.898Z,55.69
2022-11-23T04:07:54.729Z,55.46
2022-11-23T04:10:26.369Z,56.19
2022-11-23T04:13:03.701Z,55.55
2022-11-23T04:15:33.739Z,55.78
2022-11-23T04:18:02.847Z,56.38
2022-11-23T04:20:30.694Z,56.62
2022-11-23T04:22:58.677Z,56.26
2022-11-23T04:25:28.323Z,55.62
2022-11-23T04:27:56.794Z,56.63
2022-11-23T04:30:25.881Z,56.95
2022-11-23T04:32:58.183Z,56.88
2022-11-23T04:35:27.570Z,56.95
2022-11-23T04:37:56.839Z,56.33
2022-11-23T04:40:30.664Z,56.44
2022-11-23T04:43:02.359Z,56.42
2022-11-23T04:45:34.011Z,56.06
2022-11-23T04:48:09.031Z,55.60
2022-11-23T04:50:40.504Z,55.89
2022-11-23T04:53:09.263Z,56.14
2022-11-23T04:55:42.963Z,56.38
2022-11-23T04:58:11.979Z,57.97
2022-11-23T05:00:40.739Z,57.78
2022-11-23T05:03:11.092Z,57.21
2022-11-23T05:05:42.179Z,56.92
2022-11-23T05:08:11.163Z,57.70
2022-11-23T05:10:48.902Z,57.16
2022-11-23T05:13:17.068Z,58.18
2022-11-23T05:15:46.016Z,57.76
2022-11-23T05:18:19.511Z,57.90
2022-11-23T05:20:47.891Z,57.40
2022-11-23T05:23:17.443Z,58.07
2022-11-23T05:25:47.914Z,57.24
2022-11-23T05:28:39.734Z,57.16
2022-11-23T05:31:09.220Z,57.93
2022-11-23T05:33:38.969Z,57.34
2022-11-23T05:36:13.784Z,57.47
2022-11-23T05:38:42.742Z,57.37
2022-11-23T05:41:16.401Z,57.45
2022-11-23T05:43:45.589Z,57.63
2022-11-23T05:46:19.179Z,57.52
2022-11-23T05:48:48.880Z,58.25
2022-11-23T05:51:16.887Z,57.50
2022-11-23T05:53:46.456Z,57.96
2022-11-23T05:56:24.107Z,57.71
2022-11-23T05:59:08.513Z,57.90
2022-11-23T06:01:38.993Z,59.01
2022-11-23T06:04:10.511Z,58.37
2022-11-23T06:06:43.319Z,59.11
2022-11-23T06:09:11.970Z,59.27
2022-11-23T06:11:44.521Z,58.87
2022-11-23T06:14:16.003Z,57.99
2022-11-23T06:16:46.692Z,58.59
2022-11-23T06:19:36.173Z,57.96
2022-11-23T06:22:05.756Z,58.31
2022-11-23T06:24:39.068Z,58.37
2022-11-23T06:27:25.660Z,58.10
2022-11-23T06:29:53.801Z,57.70
2022-11-23T06:32:24.154Z,57.83
2022-11-23T06:34:56.674Z,57.91
2022-11-23T06:37:27.782Z,58.22
2022-11-23T06:39:56.522Z,58.23
2022-11-23T06:42:40.785Z,57.71
2022-11-23T06:45:17.763Z,56.80
2022-11-23T06:47:47.082Z,56.95
2022-11-23T06:50:17.367Z,56.79
2022-11-23T06:52:47.212Z,57.10
2022-11-23T06:55:15.440Z,56.98
2022-11-23T06:57:43.314Z,56.95
2022-11-23T07:00:14.150Z,56.45
2022-11-23T07:02:43.821Z,56.46
2022-11-23T07:05:11.848Z,57.07
2022-11-23T07:07:41.299Z,56.87
2022-11-23T07:10:15.919Z,56.74
2022-11-23T07:12:47.031Z,56.95
2022-11-23T07:15:17.550Z,56.29
2022-11-23T07:17:46.437Z,56.47
2022-11-23T07:20:15.318Z,56.86
2022-11-23T07:22:44.720Z,56.38
2022-11-23T07:25:18.269Z,56.98
2022-11-23T07:27:46.164Z,56.93
2022-11-23T07:30:14.948Z,57.43
2022-11-23T07:32:44.426Z,57.31
2022-11-23T07:35:12.816Z,58.15
2022-11-23T07:37:45.225Z,57.99
2022-11-23T07:40:13.391Z,58.11
2022-11-23T07:42:44.932Z,58.21
2022-11-23T07:45:14.016Z,57.80
2022-11-23T07:47:45.784Z,58.48
2022-11-23T07:50:14.713Z,58.61
2022-11-23T07:52:42.656Z,58.74
2022-11-23T07:55:12.009Z,58.57
2022-11-23T07:57:39.851Z,59.68
2022-11-23T08:00:09.361Z,59.27
2022-11-23T08:03:04.244Z,60.41
2022-11-23T08:05:32.894Z,60.52
2022-11-23T08:08:01.933Z,61.18
2022-11-23T08:10:32.375Z,61.08
2022-11-23T08:13:00.901Z,60.40
2022-11-23T08:15:29.170Z,61.08
2022-11-23T08:17:57.267Z,61.06
2022-11-23T08:20:25.794Z,60.80
2022-11-23T08:22:55.850Z,61.84
2022-11-23T08:25:24.405Z,61.44
2022-11-23T08:27:57.109Z,62.19
2022-11-23T08:30:27.064Z,62.21
2022-11-23T08:32:54.939Z,61.48
2022-11-23T08:35:22.782Z,61.46
2022-11-23T08:37:50.624Z,61.62
2022-11-23T08:40:24.755Z,61.46
2022-11-23T08:42:53.105Z,61.72
2022-11-23T08:45:22.671Z,61.44
2022-11-23T08:47:50.932Z,62.00
2022-11-23T08:50:18.982Z,61.92
2022-11-23T08:52:47.034Z,61.86
2022-11-23T08:55:15.101Z,62.43
2022-11-23T08:57:42.904Z,62.61
2022-11-23T09:00:11.474Z,62.53
2022-11-23T09:02:40.732Z,62.72
2022-11-23T09:05:09.484Z,62.27
2022-11-23T09:07:37.472Z,62.43
2022-11-23T09:10:06.520Z,62.45
2022-11-23T09:12:34.468Z,62.33
2022-11-23T09:15:02.381Z,62.63
2022-11-23T09:17:32.326Z,62.99
2022-11-23T09:20:01.783Z,62.94
2022-11-23T09:22:29.697Z,62.87
2022-11-23T09:24:57.655Z,62.78
2022-11-23T09:27:25.650Z,62.87
2022-11-23T09:29:53.701Z,63.40
2022-11-23T09:32:21.617Z,63.51
2022-11-23T09:34:49.510Z,63.63
2022-11-23T09:37:18.914Z,63.23
2022-11-23T09:39:46.757Z,63.04
2022-11-23T09:42:36.101Z,62.59
2022-11-23T09:45:19.911Z,62.87
2022-11-23T09:48:11.766Z,62.40
2022-11-23T09:50:47.857Z,62.81
2022-11-23T09:53:22.872Z,62.27
2022-11-23T09:55:52.634Z,62.62
2022-11-23T09:58:22.625Z,62.06
2022-11-23T10:01:02.029Z,62.08
2022-11-23T10:03:32.523Z,62.11
2022-11-23T10:06:05.663Z,62.45
2022-11-23T10:08:45.850Z,62.40
2022-11-23T10:11:49.643Z,62.66
2022-11-23T10:14:33.514Z,62.78
2022-11-23T10:17:10.362Z,63.15
2022-11-23T10:19:55.433Z,63.14
2022-11-23T10:22:30.669Z,62.90
2022-11-23T10:25:03.024Z,63.17
2022-11-23T10:27:32.218Z,63.49
2022-11-23T10:30:01.278Z,63.55
2022-11-23T10:32:34.184Z,63.70
2022-11-23T10:35:08.003Z,63.42
2022-11-23T10:37:35.854Z,64.23
2022-11-23T10:40:05.735Z,64.22
2022-11-23T10:42:38.330Z,63.67
2022-11-23T10:45:07.387Z,64.05
2022-11-23T10:47:42.773Z,63.84
2022-11-23T10:50:27.466Z,63.66
2022-11-23T10:52:58.017Z,63.79
2022-11-23T10:55:30.147Z,63.05
2022-11-23T10:57:58.610Z,63.17
2022-11-23T11:00:30.918Z,63.41
2022-11-23T11:03:00.531Z,63.48
2022-11-23T11:08:32.072Z,63.73
2022-11-23T11:11:04.037Z,63.91
2022-11-23T11:13:33.919Z,63.82
2022-11-23T11:16:03.562Z,64.14
2022-11-23T11:18:33.296Z,63.93
2022-11-23T11:21:04.877Z,64.53
2022-11-23T11:23:34.646Z,64.25
2022-11-23T11:26:11.128Z,64.68
2022-11-23T11:28:43.952Z,64.47
2022-11-23T11:31:26.967Z,64.39
2022-11-23T11:33:59.861Z,64.46
2022-11-23T11:36:33.584Z,64.87
2022-11-23T11:39:18.231Z,65.16
2022-11-23T11:41:51.735Z,65.00
2022-11-23T11:44:22.927Z,64.76
2022-11-23T11:46:58.598Z,64.67
2022-11-23T11:49:31.094Z,65.29
2022-11-23T11:52:06.912Z,65.36
2022-11-23T11:54:42.371Z,65.09
2022-11-23T11:57:18.915Z,65.58
2022-11-23T11:59:50.064Z,66.00
2022-11-23T12:02:23.663Z,65.90
2022-11-23T12:04:59.283Z,66.00
2022-11-23T12:07:31.837Z,65.72
2022-11-23T12:10:06.198Z,65.91
2022-11-23T12:12:37.890Z,66.09
2022-11-23T12:15:26.421Z,66.29
2022-11-23T12:18:24.962Z,66.39
2022-11-23T12:21:01.673Z,66.48
2022-11-23T12:23:43.218Z,66.60
2022-11-23T12:26:20.725Z,66.91
2022-11-23T12:29:14.666Z,67.56
2022-11-23T12:31:48.541Z,67.76
2022-11-23T12:34:35.437Z,67.48
2022-11-23T12:37:20.188Z,67.99
2022-11-23T12:40:23.487Z,68.15
2022-11-23T12:42:55.061Z,68.66
2022-11-23T12:45:46.415Z,67.99
2022-11-23T12:48:37.755Z,68.46
2022-11-23T12:51:15.977Z,68.27
2022-11-23T12:53:54.399Z,68.59
2022-11-23T12:56:40.426Z,68.14
2022-11-23T12:59:12.076Z,68.92
2022-11-23T13:01:44.326Z,68.45
2022-11-23T13:04:45.708Z,68.70
2022-11-23T13:07:43.194Z,69.31
2022-11-23T13:10:23.875Z,69.24
2022-11-23T13:13:14.029Z,69.36
2022-11-23T13:15:59.913Z,69.79
2022-11-23T13:18:42.241Z,69.88
2022-11-23T13:21:21.517Z,69.39
2022-11-23T13:23:49.592Z,69.85
2022-11-23T13:26:18.818Z,70.33
2022-11-23T13:28:47.912Z,69.55
2022-11-23T13:31:23.530Z,70.46
2022-11-23T13:33:55.227Z,70.57
2022-11-23T13:40:03.734Z,70.72
2022-11-23T13:42:35.725Z,70.12
2022-11-23T13:45:26.872Z,70.21
2022-11-23T13:48:06.666Z,70.95
2022-11-23T13:50:36.929Z,70.24
2022-11-23T13:53:05.913Z,70.60
2022-11-23T13:55:37.970Z,70.77
2022-11-23T13:58:37.715Z,70.13
2022-11-23T14:01:05.951Z,70.50
2022-11-23T14:03:56.222Z,71.06
2022-11-23T14:06:35.583Z,70.71
2022-11-23T14:09:10.960Z,71.27
2022-11-23T14:11:53.423Z,71.16
2022-11-23T14:14:27.524Z,70.33
2022-11-23T14:17:20.662Z,71.35
2022-11-23T14:20:09.608Z,70.87
2022-11-23T14:22:52.138Z,70.91
2022-11-23T14:25:37.265Z,71.79
2022-11-23T14:28:15.790Z,71.66
2022-11-23T14:30:56.208Z,71.38
2022-11-23T14:33:34.406Z,71.88
2022-11-23T14:36:17.628Z,71.63
2022-11-23T14:39:04.363Z,71.79
2022-11-23T14:41:36.274Z,71.76
2022-11-23T14:44:06.918Z,71.97
2022-11-23T14:46:34.949Z,72.57
2022-11-23T14:49:07.489Z,72.60
2022-11-23T14:51:37.714Z,72.69
2022-11-23T14:54:10.975Z,72.02
2022-11-23T14:56:43.796Z,72.92
2022-11-23T14:59:25.651Z,71.81
2022-11-23T15:01:57.132Z,71.94
2022-11-23T15:04:29.076Z,72.55
2022-11-23T15:07:00.342Z,72.15
2022-11-23T15:09:43.014Z,73.48
2022-11-23T15:12:22.876Z,72.64
2022-11-23T15:14:51.760Z,73.12
2022-11-23T15:17:21.762Z,73.57
2022-11-23T15:19:57.341Z,73.06
2022-11-23T15:22:26.963Z,73.55
2022-11-23T15:25:07.009Z,73.47
2022-11-23T15:27:34.919Z,74.11
2022-11-23T15:30:03.275Z,73.87
2022-11-23T15:32:34.234Z,74.44
2022-11-23T15:35:07.191Z,73.47
2022-11-23T15:37:42.080Z,73.29
2022-11-23T15:40:15.127Z,73.66
2022-11-23T15:42:44.438Z,73.67
2022-11-23T15:45:35.176Z,73.68
2022-11-23T15:48:04.352Z,73.53
2022-11-23T15:50:34.216Z,73.89
2022-11-23T15:53:03.246Z,73.96
2022-11-23T15:55:32.459Z,73.96
2022-11-23T15:58:03.531Z,73.63
2022-11-23T16:00:31.781Z,74.22
2022-11-23T16:03:34.367Z,74.19
2022-11-23T16:06:25.888Z,73.76
2022-11-23T16:08:53.725Z,73.84
2022-11-23T16:11:29.927Z,74.49
2022-11-23T16:14:31.934Z,73.87
2022-11-23T16:17:04.296Z,74.33
2022-11-23T16:19:34.870Z,74.19
2022-11-23T16:22:06.208Z,73.84
2022-11-23T16:24:36.781Z,74.60
2022-11-23T16:27:15.657Z,74.84
2022-11-23T16:29:43.753Z,74.37
2022-11-23T16:32:24.037Z,74.51
2022-11-23T16:34:52.053Z,74.92
2022-11-23T16:37:20.270Z,74.65
2022-11-23T16:39:48.177Z,74.94
2022-11-23T16:42:18.342Z,74.96
2022-11-23T16:44:46.323Z,75.39
2022-11-23T16:47:21.426Z,74.97
2022-11-23T16:49:50.124Z,74.67
2022-11-23T16:52:18.507Z,75.03
2022-11-23T16:54:46.839Z,75.16
2022-11-23T16:57:30.153Z,74.40
2022-11-23T17:00:00.065Z,74.91
2022-11-23T17:02:28.691Z,75.03
2022-11-23T17:04:56.826Z,74.91
2022-11-23T17:07:24.884Z,74.81
2022-11-23T17:09:52.820Z,74.73
2022-11-23T17:12:21.747Z,75.03
2022-11-23T17:14:51.484Z,74.81
2022-11-23T17:17:22.000Z,74.86
2022-11-23T17:19:50.803Z,74.79
2022-11-23T17:22:19.803Z,74.50
2022-11-23T17:24:48.739Z,74.98
2022-11-23T17:27:19.700Z,75.00
2022-11-23T17:29:48.791Z,74.71
2022-11-23T17:32:18.136Z,74.58
2022-11-23T17:34:45.990Z,74.30
2022-11-23T17:37:19.981Z,75.25
2022-11-23T17:39:48.539Z,74.65
2022-11-23T17:42:17.114Z,74.43
2022-11-23T17:44:45.023Z,74.35
2022-11-23T17:47:25.462Z,75.09
2022-11-23T17:49:53.340Z,74.59
2022-11-23T17:52:21.217Z,74.90
2022-11-23T17:54:49.155Z,74.91
2022-11-23T17:57:20.072Z,74.62
2022-11-23T17:59:47.977Z,74.34
2022-11-23T18:02:16.228Z,74.24
2022-11-23T18:04:45.425Z,74.38
2022-11-23T18:07:14.568Z,74.15
2022-11-23T18:09:43.161Z,74.26
2022-11-23T18:12:11.282Z,74.79
2022-11-23T18:14:39.255Z,74.94
2022-11-23T18:17:07.195Z,74.34
2022-11-23T18:19:35.450Z,74.59
2022-11-23T18:22:04.772Z,74.27
2022-11-23T18:24:32.598Z,74.76
2022-11-23T18:27:00.704Z,74.92
2022-11-23T18:29:28.559Z,74.92
2022-11-23T18:31:56.391Z,74.74
2022-11-23T18:34:24.240Z,74.78
2022-11-23T18:36:52.059Z,74.46
2022-11-23T18:39:21.329Z,74.65
2022-11-23T18:41:49.349Z,75.08
2022-11-23T18:44:17.321Z,74.68
2022-11-23T18:46:45.978Z,75.19
2022-11-23T18:49:14.154Z,75.14
2022-11-23T18:51:41.933Z,74.22
2022-11-23T18:54:09.733Z,74.49
2022-11-23T18:56:38.954Z,74.93
2022-11-23T18:59:07.602Z,74.54
2022-11-23T19:01:35.485Z,74.72
2022-11-23T19:04:03.658Z,75.44
2022-11-23T19:06:32.635Z,75.47
2022-11-23T19:09:01.764Z,74.94
2022-11-23T19:11:29.620Z,75.16
2022-11-23T19:14:01.228Z,74.75
2022-11-23T19:16:31.353Z,75.16
2022-11-23T19:19:01.039Z,74.80
2022-11-23T19:21:31.015Z,74.83
2022-11-23T19:24:00.685Z,75.25
2022-11-23T19:26:29.960Z,75.01
2022-11-23T19:28:59.901Z,74.67
2022-11-23T19:31:29.252Z,74.80
2022-11-23T19:34:00.578Z,74.48
2022-11-23T19:36:30.227Z,75.44
2022-11-23T19:39:00.266Z,75.63
2022-11-23T19:41:30.819Z,75.26
2022-11-23T19:44:01.416Z,75.43
2022-11-23T19:46:31.035Z,75.05
2022-11-23T19:48:59.289Z,75.76
2022-11-23T19:51:28.179Z,74.73
2022-11-23T19:53:57.164Z,75.15
2022-11-23T19:56:28.690Z,75.10
2022-11-23T19:58:58.362Z,74.98
2022-11-23T20:01:29.036Z,74.79
2022-11-23T20:03:58.211Z,75.25
2022-11-23T20:06:28.390Z,74.75
2022-11-23T20:08:57.410Z,75.41
2022-11-23T20:11:26.319Z,75.00
2022-11-23T20:13:54.888Z,74.97
2022-11-23T20:16:24.263Z,75.43
2022-11-23T20:18:58.679Z,74.92
2022-11-23T20:21:27.868Z,74.79
2022-11-23T20:24:01.442Z,75.21
2022-11-23T20:26:32.899Z,75.46
2022-11-23T20:29:01.125Z,74.81
2022-11-23T20:31:30.384Z,75.32
2022-11-23T20:34:06.438Z,74.75
2022-11-23T20:36:36.869Z,75.43
2022-11-23T20:39:06.959Z,75.51
2022-11-23T20:41:36.469Z,75.05
2022-11-23T20:44:06.604Z,74.68
2022-11-23T20:49:24.096Z,74.29
2022-11-23T20:51:51.873Z,74.45
2022-11-23T20:54:19.719Z,74.01
2022-11-23T20:56:47.564Z,74.92
2022-11-23T20:59:15.702Z,74.75
2022-11-23T21:01:43.694Z,73.95
2022-11-23T21:04:11.632Z,73.71
2022-11-23T21:06:40.997Z,73.83
2022-11-23T21:09:10.984Z,74.55
2022-11-23T21:11:56.243Z,74.18
2022-11-23T21:14:27.628Z,75.04
2022-11-23T21:16:58.510Z,74.16
2022-11-23T21:19:28.313Z,73.94
2022-11-23T21:21:58.960Z,74.30
2022-11-23T21:24:26.987Z,73.93
2022-11-23T21:26:55.046Z,74.40
2022-11-23T21:29:23.647Z,74.32
2022-11-23T21:31:51.638Z,74.23
2022-11-23T21:34:21.797Z,74.65
2022-11-23T21:36:50.455Z,73.99
2022-11-23T21:39:20.570Z,74.25
2022-11-23T21:41:50.682Z,73.69
2022-11-23T21:44:19.221Z,74.67
2022-11-23T21:46:47.282Z,75.13
2022-11-23T21:49:15.242Z,76.67
2022-11-23T21:51:43.827Z,76.97
2022-11-23T21:54:15.285Z,77.11
2022-11-23T21:56:45.286Z,77.14
2022-11-23T21:59:13.907Z,76.94
2022-11-23T22:01:42.415Z,76.99
2022-11-23T22:04:12.456Z,76.49
2022-11-23T22:06:41.904Z,76.62
2022-11-23T22:09:12.170Z,76.28
2022-11-23T22:11:42.238Z,76.81
2022-11-23T22:14:13.487Z,76.75
2022-11-23T22:16:43.331Z,76.97
2022-11-23T22:19:11.817Z,76.12
2022-11-23T22:21:41.242Z,76.04
2022-11-23T22:24:12.853Z,76.29
2022-11-23T22:26:40.757Z,76.24
2022-11-23T22:29:08.718Z,76.08
2022-11-23T22:31:38.691Z,75.75
2022-11-23T22:34:08.585Z,76.53
2022-11-23T22:36:36.460Z,75.64
2022-11-23T22:39:06.436Z,76.50
2022-11-23T22:41:36.813Z,76.20
2022-11-23T22:44:06.615Z,76.29
2022-11-23T22:46:34.519Z,76.19
2022-11-23T22:49:03.939Z,76.09
2022-11-23T22:51:31.783Z,76.55
2022-11-23T22:54:00.985Z,76.63
2022-11-23T22:56:30.721Z,76.68
2022-11-23T22:58:58.800Z,76.67
2022-11-23T23:01:28.968Z,76.82
2022-11-23T23:03:58.451Z,76.18
2022-11-23T23:06:29.558Z,76.34
2022-11-23T23:08:59.096Z,76.55
2022-11-23T23:11:28.964Z,76.55
2022-11-23T23:13:57.277Z,76.15
2022-11-23T23:16:25.589Z,75.81
2022-11-23T23:18:55.783Z,76.71
2022-11-23T23:21:24.591Z,76.68
2022-11-23T23:23:55.185Z,75.98
2022-11-23T23:26:24.904Z,76.92
2022-11-23T23:28:55.301Z,76.58
2022-11-23T23:31:24.929Z,77.06
2022-11-23T23:33:54.540Z,76.62
2022-11-23T23:36:23.570Z,76.48
2022-11-23T23:38:54.967Z,77.46
2022-11-23T23:41:23.487Z,77.27
2022-11-23T23:43:51.261Z,76.70
2022-11-23T23:46:19.302Z,76.79
2022-11-23T23:48:47.835Z,76.62
2022-11-23T23:51:17.325Z,77.29
2022-11-23T23:53:47.940Z,77.19
2022-11-23T23:56:21.470Z,76.71
2022-11-23T23:58:49.893Z,77.15
